createdAt,value
2022-12-29T00:00:16.045Z,6.24
2022-12-29T00:05:39.954Z,6.26
2022-12-29T00:10:43.874Z,6.27
2022-12-29T00:15:47.754Z,6.29
2022-12-29T00:21:14.986Z,6.35
2022-12-29T00:26:37.747Z,6.39
2022-12-29T00:31:59.919Z,6.40
2022-12-29T00:37:04.043Z,6.41
2022-12-29T00:42:29.871Z,6.36
2022-12-29T00:47:33.588Z,6.38
2022-12-29T00:52:38.225Z,6.37
2022-12-29T00:57:42.465Z,6.38
2022-12-29T01:02:46.708Z,6.33
2022-12-29T01:07:50.975Z,6.30
2022-12-29T01:12:54.870Z,6.24
2022-12-29T01:17:58.902Z,6.24
2022-12-29T01:23:02.928Z,6.17
2022-12-29T01:28:06.747Z,6.17
2022-12-29T01:33:11.189Z,6.19
2022-12-29T01:38:14.905Z,6.18
2022-12-29T01:43:18.747Z,6.13
2022-12-29T01:48:22.559Z,6.11
2022-12-29T01:53:36.470Z,6.10
2022-12-29T01:58:47.651Z,6.11
2022-12-29T02:03:53.148Z,6.11
2022-12-29T02:08:58.955Z,6.09
2022-12-29T02:14:03.862Z,6.09
2022-12-29T02:20:05.078Z,6.12
2022-12-29T02:25:53.230Z,6.05
2022-12-29T02:31:12.071Z,6.05
2022-12-29T02:36:51.828Z,6.02
2022-12-29T02:42:03.488Z,6.06
2022-12-29T02:47:30.960Z,6.04
2022-12-29T02:52:59.908Z,6.02
2022-12-29T02:58:24.624Z,6.00
2022-12-29T03:03:53.507Z,6.00
2022-12-29T03:09:27.130Z,6.06
2022-12-29T03:15:02.324Z,6.10
2022-12-29T03:20:11.841Z,6.11
2022-12-29T03:25:48.136Z,6.09
2022-12-29T03:30:52.101Z,6.09
2022-12-29T03:36:04.402Z,6.09
2022-12-29T03:41:16.030Z,6.04
2022-12-29T03:46:19.660Z,5.99
2022-12-29T03:51:23.646Z,5.91
2022-12-29T03:56:27.462Z,5.90
2022-12-29T04:01:31.224Z,5.98
2022-12-29T04:06:35.220Z,5.98
2022-12-29T04:11:39.160Z,5.99
2022-12-29T04:16:43.197Z,5.95
2022-12-29T04:21:47.024Z,5.91
2022-12-29T04:26:51.261Z,5.87
2022-12-29T04:31:54.958Z,5.87
2022-12-29T04:36:58.577Z,5.83
2022-12-29T04:42:02.308Z,5.83
2022-12-29T04:47:06.143Z,5.87
2022-12-29T04:52:09.957Z,5.89
2022-12-29T04:57:13.675Z,5.95
2022-12-29T05:02:19.201Z,5.95
2022-12-29T05:07:22.860Z,5.99
2022-12-29T05:12:26.804Z,6.05
2022-12-29T05:17:31.402Z,6.08
2022-12-29T05:22:34.963Z,6.03
2022-12-29T05:27:39.039Z,5.96
2022-12-29T05:32:43.134Z,5.93
2022-12-29T05:37:47.050Z,5.90
2022-12-29T05:42:51.067Z,5.91
2022-12-29T05:47:54.792Z,5.88
2022-12-29T05:52:58.521Z,5.90
2022-12-29T05:58:02.556Z,5.92
2022-12-29T06:03:06.880Z,5.91
2022-12-29T06:08:11.332Z,5.92
2022-12-29T06:13:15.260Z,5.91
2022-12-29T06:18:20.386Z,5.92
2022-12-29T06:23:24.328Z,5.93
2022-12-29T06:28:28.260Z,5.97
2022-12-29T06:33:32.229Z,5.98
2022-12-29T06:38:36.728Z,6.00
2022-12-29T06:43:41.374Z,5.98
2022-12-29T06:48:45.199Z,5.97
2022-12-29T06:53:49.331Z,5.93
2022-12-29T06:58:53.058Z,5.90
2022-12-29T07:03:57.189Z,5.87
2022-12-29T07:09:01.487Z,5.86
2022-12-29T07:14:05.651Z,5.93
2022-12-29T07:19:09.482Z,5.97
2022-12-29T07:24:13.619Z,5.99
2022-12-29T07:29:17.842Z,6.02
2022-12-29T07:34:21.670Z,6.06
2022-12-29T07:39:25.339Z,6.09
2022-12-29T07:44:29.525Z,6.13
2022-12-29T07:49:34.443Z,6.16
2022-12-29T07:54:39.024Z,6.22
2022-12-29T08:09:37.947Z,6.39
2022-12-29T08:14:42.020Z,6.44
2022-12-29T08:19:45.701Z,6.44
2022-12-29T08:24:49.820Z,6.48
2022-12-29T08:29:55.224Z,6.53
2022-12-29T08:34:59.083Z,6.62
2022-12-29T08:40:05.641Z,6.66
2022-12-29T08:45:10.510Z,6.72
2022-12-29T08:50:14.232Z,6.76
2022-12-29T08:55:18.248Z,6.75
2022-12-29T09:00:22.055Z,6.74
2022-12-29T09:05:25.915Z,6.78
2022-12-29T09:10:29.789Z,6.82
2022-12-29T09:15:33.679Z,6.88
2022-12-29T09:20:38.523Z,7.09
2022-12-29T09:25:44.530Z,7.32
2022-12-29T09:30:49.890Z,7.36
2022-12-29T09:35:57.469Z,7.31
2022-12-29T09:41:21.361Z,7.30
2022-12-29T09:46:31.465Z,7.31
2022-12-29T09:51:40.075Z,7.35
2022-12-29T09:56:47.046Z,7.39
2022-12-29T10:02:24.677Z,7.43
2022-12-29T10:07:45.016Z,7.55
2022-12-29T10:13:11.862Z,7.63
2022-12-29T10:18:42.991Z,7.64
2022-12-29T10:23:52.909Z,7.86
2022-12-29T10:29:05.228Z,8.56
2022-12-29T10:34:35.004Z,8.90
2022-12-29T10:39:54.983Z,8.67
2022-12-29T10:45:00.944Z,9.09
2022-12-29T10:50:06.544Z,9.13
2022-12-29T10:55:33.260Z,8.97
2022-12-29T11:00:37.139Z,8.80
2022-12-29T11:05:47.907Z,8.60
2022-12-29T11:11:11.736Z,8.66
2022-12-29T11:16:15.683Z,8.64
2022-12-29T11:21:28.961Z,8.65
2022-12-29T11:26:35.335Z,8.63
2022-12-29T11:31:56.442Z,8.60
2022-12-29T11:37:07.489Z,8.50
2022-12-29T11:42:21.395Z,8.52
2022-12-29T11:47:31.593Z,8.47
2022-12-29T11:52:40.929Z,8.44
2022-12-29T11:57:46.177Z,8.41
2022-12-29T12:03:09.601Z,8.36
2022-12-29T12:08:37.499Z,8.26
2022-12-29T12:14:05.010Z,8.30
2022-12-29T12:19:36.232Z,8.29
2022-12-29T12:24:57.865Z,8.34
2022-12-29T12:30:17.048Z,8.63
2022-12-29T12:35:54.402Z,8.64
2022-12-29T12:41:10.996Z,8.50
2022-12-29T12:46:52.017Z,8.51
2022-12-29T12:52:08.053Z,8.52
2022-12-29T12:57:49.190Z,8.53
2022-12-29T13:03:11.933Z,8.53
2022-12-29T13:08:39.552Z,8.50
2022-12-29T13:13:52.599Z,8.45
2022-12-29T13:19:15.783Z,8.43
2022-12-29T13:24:34.965Z,8.34
2022-12-29T13:30:10.007Z,8.21
2022-12-29T13:35:56.779Z,8.19
2022-12-29T13:41:40.677Z,8.26
2022-12-29T13:46:48.039Z,8.29
2022-12-29T13:51:56.924Z,8.31
2022-12-29T13:57:09.206Z,8.34
2022-12-29T14:02:23.024Z,8.36
2022-12-29T14:07:28.194Z,8.40
2022-12-29T14:12:45.097Z,8.50
2022-12-29T14:18:03.726Z,8.53
2022-12-29T14:23:10.424Z,8.55
2022-12-29T14:28:26.176Z,8.62
2022-12-29T14:33:34.022Z,8.65
2022-12-29T14:38:47.614Z,8.70
2022-12-29T14:44:21.428Z,8.73
2022-12-29T14:49:34.022Z,8.75
2022-12-29T14:54:53.050Z,8.77
2022-12-29T15:00:36.092Z,8.80
2022-12-29T15:05:47.709Z,8.83
2022-12-29T15:11:12.811Z,8.85
2022-12-29T15:16:27.134Z,8.85
2022-12-29T15:21:37.082Z,8.83
2022-12-29T15:26:48.256Z,8.88
2022-12-29T15:31:52.121Z,8.86
2022-12-29T15:36:56.043Z,8.88
2022-12-29T15:42:39.237Z,8.91
2022-12-29T15:47:51.807Z,8.90
2022-12-29T15:53:00.821Z,8.85
2022-12-29T15:58:20.091Z,8.79
2022-12-29T16:03:28.158Z,8.70
2022-12-29T16:08:41.279Z,8.66
2022-12-29T16:13:46.736Z,8.69
2022-12-29T16:18:57.776Z,8.67
2022-12-29T16:24:30.468Z,8.63
2022-12-29T16:29:35.539Z,8.62
2022-12-29T16:34:39.513Z,8.61
2022-12-29T16:39:43.982Z,8.60
2022-12-29T16:44:47.659Z,8.56
2022-12-29T16:49:55.391Z,8.56
2022-12-29T16:55:04.901Z,8.56
2022-12-29T17:00:23.244Z,8.59
2022-12-29T17:05:28.084Z,8.60
2022-12-29T17:10:53.800Z,8.62
2022-12-29T17:15:59.253Z,8.64
2022-12-29T17:21:04.259Z,8.66
2022-12-29T17:26:11.053Z,8.64
2022-12-29T17:31:15.475Z,8.62
2022-12-29T17:36:19.628Z,8.56
2022-12-29T17:41:23.429Z,8.58
2022-12-29T17:46:27.869Z,8.62
2022-12-29T17:51:31.612Z,8.66
2022-12-29T17:56:35.909Z,8.67
2022-12-29T18:01:45.610Z,8.67
2022-12-29T18:06:52.291Z,8.69
2022-12-29T18:11:57.019Z,8.74
2022-12-29T18:17:01.358Z,8.81
2022-12-29T18:22:05.371Z,8.77
2022-12-29T18:27:19.886Z,8.63
2022-12-29T18:32:23.983Z,8.56
2022-12-29T18:37:27.973Z,8.46
2022-12-29T18:42:31.777Z,8.46
2022-12-29T18:47:35.868Z,8.46
2022-12-29T18:52:40.486Z,8.45
2022-12-29T18:57:45.601Z,8.48
2022-12-29T19:02:52.884Z,8.40
2022-12-29T19:07:57.203Z,8.42
2022-12-29T19:13:02.169Z,8.30
2022-12-29T19:23:35.176Z,8.04
2022-12-29T19:28:39.034Z,8.07
2022-12-29T19:33:42.985Z,8.05
2022-12-29T19:38:47.394Z,8.09
2022-12-29T19:43:51.417Z,8.10
2022-12-29T19:48:59.248Z,8.11
2022-12-29T19:54:03.208Z,8.09
2022-12-29T19:59:07.523Z,8.14
2022-12-29T20:04:11.957Z,8.18
2022-12-29T20:09:17.234Z,8.19
2022-12-29T20:14:21.698Z,8.28
2022-12-29T20:19:26.289Z,8.34
2022-12-29T20:24:32.378Z,8.35
2022-12-29T20:29:40.791Z,8.33
2022-12-29T20:34:46.691Z,8.25
2022-12-29T20:39:50.920Z,8.06
2022-12-29T20:44:55.059Z,7.84
2022-12-29T20:49:59.343Z,7.72
2022-12-29T20:55:03.898Z,7.61
2022-12-29T21:00:22.525Z,7.54
2022-12-29T21:05:39.832Z,7.54
2022-12-29T21:10:47.906Z,7.59
2022-12-29T21:16:06.031Z,7.63
2022-12-29T21:21:31.796Z,7.71
2022-12-29T21:26:36.071Z,7.81
2022-12-29T21:31:40.335Z,7.94
2022-12-29T21:36:44.686Z,8.05
2022-12-29T21:41:48.954Z,8.02
2022-12-29T21:46:52.823Z,8.03
2022-12-29T21:51:58.197Z,8.12
2022-12-29T21:57:02.521Z,8.13
2022-12-29T22:02:53.593Z,8.17
2022-12-29T22:08:17.039Z,8.13
2022-12-29T22:13:20.867Z,8.17
2022-12-29T22:18:25.930Z,8.22
2022-12-29T22:23:30.065Z,8.17
2022-12-29T22:28:41.250Z,8.23
2022-12-29T22:33:46.090Z,8.31
2022-12-29T22:38:50.540Z,8.40
2022-12-29T22:43:55.499Z,8.39
2022-12-29T22:48:59.754Z,8.39
2022-12-29T22:54:03.543Z,8.35
2022-12-29T22:59:07.397Z,8.30
2022-12-29T23:04:55.558Z,8.28
2022-12-29T23:09:35.715Z,8.32
2022-12-29T23:14:39.836Z,8.34
2022-12-29T23:19:43.573Z,8.33
2022-12-29T23:24:47.521Z,8.26
2022-12-29T23:29:51.426Z,8.25
2022-12-29T23:34:55.551Z,8.23
2022-12-29T23:39:59.485Z,8.20
2022-12-29T23:45:03.930Z,8.17
2022-12-29T23:50:09.261Z,8.13
2022-12-29T23:55:13.413Z,8.08
